sensor_id;sensor_type;location;lat;lon;timestamp;pressure;altitude;pressure_sealevel;temperature;humidity
8717;BME280;4395;48.554;8.820;2023-03-03T00:00:40;95789.16;;;0.45;100.00
8717;BME280;4395;48.554;8.820;2023-03-03T00:02:44;95827.63;;;0.75;100.00
8717;BME280;4395;48.554;8.820;2023-03-03T00:04:48;96016.22;;;2.02;100.00
8717;BME280;4395;48.554;8.820;2023-03-03T00:06:50;96011.34;;;2.06;100.00
8717;BME280;4395;48.554;8.820;2023-03-03T00:08:53;96011.44;;;1.84;100.00
8717;BME280;4395;48.554;8.820;2023-03-03T00:10:56;95949.94;;;1.26;100.00
8717;BME280;4395;48.554;8.820;2023-03-03T00:13:01;95991.59;;;1.74;100.00
8717;BME280;4395;48.554;8.820;2023-03-03T00:15:13;96019.44;;;1.91;100.00
8717;BME280;4395;48.554;8.820;2023-03-03T00:17:21;95994.88;;;1.76;100.00
8717;BME280;4395;48.554;8.820;2023-03-03T00:19:26;96009.41;;;1.86;100.00
8717;BME280;4395;48.554;8.820;2023-03-03T00:21:30;96016.16;;;1.89;100.00
8717;BME280;4395;48.554;8.820;2023-03-03T00:23:35;95986.53;;;1.44;100.00
8717;BME280;4395;48.554;8.820;2023-03-03T00:25:41;96012.56;;;1.69;100.00
8717;BME280;4395;48.554;8.820;2023-03-03T00:27:44;95996.44;;;1.64;100.00
8717;BME280;4395;48.554;8.820;2023-03-03T00:29:49;95984.03;;;1.71;100.00
8717;BME280;4395;48.554;8.820;2023-03-03T00:32:02;96017.44;;;2.00;100.00
8717;BME280;4395;48.554;8.820;2023-03-03T00:34:23;96017.25;;;1.67;100.00
8717;BME280;4395;48.554;8.820;2023-03-03T00:36:30;96023.41;;;1.74;100.00
8717;BME280;4395;48.554;8.820;2023-03-03T00:38:37;96025.00;;;1.68;100.00
8717;BME280;4395;48.554;8.820;2023-03-03T00:40:40;96002.44;;;1.79;100.00
8717;BME280;4395;48.554;8.820;2023-03-03T00:42:46;95944.53;;;1.41;100.00
8717;BME280;4395;48.554;8.820;2023-03-03T00:44:55;96023.28;;;1.88;100.00
8717;BME280;4395;48.554;8.820;2023-03-03T00:47:02;96012.91;;;1.59;100.00
8717;BME280;4395;48.554;8.820;2023-03-03T00:49:22;96010.41;;;1.51;100.00
8717;BME280;4395;48.554;8.820;2023-03-03T00:51:30;96028.84;;;1.66;100.00
8717;BME280;4395;48.554;8.820;2023-03-03T00:53:33;96004.69;;;1.82;100.00
8717;BME280;4395;48.554;8.820;2023-03-03T00:55:36;96014.63;;;1.73;100.00
8717;BME280;4395;48.554;8.820;2023-03-03T00:57:40;96004.16;;;1.58;100.00
8717;BME280;4395;48.554;8.820;2023-03-03T00:59:44;96009.06;;;1.61;100.00
8717;BME280;4395;48.554;8.820;2023-03-03T01:01:47;96015.50;;;1.80;100.00
8717;BME280;4395;48.554;8.820;2023-03-03T01:03:50;96012.50;;;1.90;100.00
8717;BME280;4395;48.554;8.820;2023-03-03T01:05:53;96010.88;;;1.96;100.00
8717;BME280;4395;48.554;8.820;2023-03-03T01:07:57;96008.09;;;2.04;100.00
8717;BME280;4395;48.554;8.820;2023-03-03T01:10:00;96013.81;;;2.07;100.00
8717;BME280;4395;48.554;8.820;2023-03-03T01:12:04;96011.97;;;2.08;100.00
8717;BME280;4395;48.554;8.820;2023-03-03T01:14:07;96010.72;;;2.04;100.00
8717;BME280;4395;48.554;8.820;2023-03-03T01:16:10;96018.97;;;1.81;100.00
8717;BME280;4395;48.554;8.820;2023-03-03T01:18:13;95971.09;;;1.54;100.00
8717;BME280;4395;48.554;8.820;2023-03-03T01:20:17;96020.53;;;1.69;100.00
8717;BME280;4395;48.554;8.820;2023-03-03T01:22:20;96014.41;;;1.68;100.00
8717;BME280;4395;48.554;8.820;2023-03-03T01:24:25;95986.75;;;1.49;100.00
8717;BME280;4395;48.554;8.820;2023-03-03T01:26:28;96011.09;;;1.59;100.00
8717;BME280;4395;48.554;8.820;2023-03-03T01:28:32;96015.56;;;1.59;100.00
8717;BME280;4395;48.554;8.820;2023-03-03T01:30:35;96022.72;;;1.65;100.00
8717;BME280;4395;48.554;8.820;2023-03-03T01:32:39;96025.81;;;1.69;100.00
8717;BME280;4395;48.554;8.820;2023-03-03T01:34:41;96012.34;;;1.64;100.00
8717;BME280;4395;48.554;8.820;2023-03-03T01:36:44;96012.34;;;1.64;100.00
8717;BME280;4395;48.554;8.820;2023-03-03T01:38:47;96017.63;;;1.64;100.00
8717;BME280;4395;48.554;8.820;2023-03-03T01:40:54;96010.38;;;1.44;100.00
8717;BME280;4395;48.554;8.820;2023-03-03T01:42:58;95996.25;;;1.37;100.00
8717;BME280;4395;48.554;8.820;2023-03-03T01:45:18;96000.81;;;1.50;100.00
8717;BME280;4395;48.554;8.820;2023-03-03T01:47:25;96000.25;;;1.54;100.00
8717;BME280;4395;48.554;8.820;2023-03-03T01:49:32;96008.81;;;1.56;100.00
8717;BME280;4395;48.554;8.820;2023-03-03T01:51:40;96008.00;;;1.56;100.00
8717;BME280;4395;48.554;8.820;2023-03-03T01:53:47;96008.00;;;1.56;100.00
8717;BME280;4395;48.554;8.820;2023-03-03T01:55:52;96001.44;;;1.52;100.00
8717;BME280;4395;48.554;8.820;2023-03-03T01:57:58;96003.25;;;1.45;100.00
8717;BME280;4395;48.554;8.820;2023-03-03T02:00:05;95997.69;;;1.40;100.00
8717;BME280;4395;48.554;8.820;2023-03-03T02:02:14;95998.91;;;1.37;100.00
8717;BME280;4395;48.554;8.820;2023-03-03T02:04:17;96006.84;;;1.37;100.00
8717;BME280;4395;48.554;8.820;2023-03-03T02:06:25;95938.09;;;0.94;100.00
8717;BME280;4395;48.554;8.820;2023-03-03T02:08:32;96005.84;;;1.38;100.00
8717;BME280;4395;48.554;8.820;2023-03-03T02:10:39;95997.34;;;1.21;100.00
8717;BME280;4395;48.554;8.820;2023-03-03T02:12:45;95982.81;;;1.11;100.00
8717;BME280;4395;48.554;8.820;2023-03-03T02:14:51;96003.38;;;1.09;100.00
8717;BME280;4395;48.554;8.820;2023-03-03T02:16:54;95988.88;;;1.05;100.00
8717;BME280;4395;48.554;8.820;2023-03-03T02:18:56;95992.66;;;0.95;100.00
8717;BME280;4395;48.554;8.820;2023-03-03T02:21:04;95968.34;;;0.85;100.00
8717;BME280;4395;48.554;8.820;2023-03-03T02:23:12;95993.16;;;1.06;100.00
8717;BME280;4395;48.554;8.820;2023-03-03T02:25:25;95990.13;;;1.09;100.00
8717;BME280;4395;48.554;8.820;2023-03-03T02:27:31;95883.47;;;0.38;100.00
8717;BME280;4395;48.554;8.820;2023-03-03T02:29:35;95997.63;;;1.05;100.00
8717;BME280;4395;48.554;8.820;2023-03-03T02:31:40;95972.63;;;0.86;100.00
8717;BME280;4395;48.554;8.820;2023-03-03T02:33:45;95983.59;;;0.83;100.00
8717;BME280;4395;48.554;8.820;2023-03-03T02:35:49;95980.06;;;0.76;100.00
8717;BME280;4395;48.554;8.820;2023-03-03T02:37:52;95971.25;;;0.69;100.00
8717;BME280;4395;48.554;8.820;2023-03-03T02:39:56;95982.66;;;0.70;100.00
8717;BME280;4395;48.554;8.820;2023-03-03T02:42:02;95979.50;;;0.59;100.00
8717;BME280;4395;48.554;8.820;2023-03-03T02:44:16;95970.69;;;0.52;100.00
8717;BME280;4395;48.554;8.820;2023-03-03T02:46:19;95968.47;;;0.56;100.00
8717;BME280;4395;48.554;8.820;2023-03-03T02:48:22;95962.44;;;0.62;100.00
8717;BME280;4395;48.554;8.820;2023-03-03T02:50:25;95973.28;;;0.67;100.00
8717;BME280;4395;48.554;8.820;2023-03-03T02:52:27;95973.66;;;0.64;100.00
8717;BME280;4395;48.554;8.820;2023-03-03T02:54:30;95925.72;;;0.31;100.00
8717;BME280;4395;48.554;8.820;2023-03-03T02:56:36;95810.28;;;-0.41;100.00
8717;BME280;4395;48.554;8.820;2023-03-03T02:58:39;95969.75;;;0.60;100.00
8717;BME280;4395;48.554;8.820;2023-03-03T03:00:43;95967.84;;;0.54;100.00
8717;BME280;4395;48.554;8.820;2023-03-03T03:02:51;95976.78;;;0.53;100.00
8717;BME280;4395;48.554;8.820;2023-03-03T03:04:55;95978.69;;;0.59;100.00
8717;BME280;4395;48.554;8.820;2023-03-03T03:06:58;95980.13;;;0.61;100.00
8717;BME280;4395;48.554;8.820;2023-03-03T03:09:06;95940.38;;;0.34;100.00
8717;BME280;4395;48.554;8.820;2023-03-03T03:11:09;95983.22;;;0.65;100.00
8717;BME280;4395;48.554;8.820;2023-03-03T03:13:12;95975.66;;;0.62;100.00
8717;BME280;4395;48.554;8.820;2023-03-03T03:15:18;95990.28;;;0.58;100.00
8717;BME280;4395;48.554;8.820;2023-03-03T03:17:22;95953.69;;;0.40;100.00
8717;BME280;4395;48.554;8.820;2023-03-03T03:19:26;95992.16;;;0.64;100.00
8717;BME280;4395;48.554;8.820;2023-03-03T03:21:32;95972.88;;;0.70;100.00
8717;BME280;4395;48.554;8.820;2023-03-03T03:23:36;95979.44;;;0.74;100.00
8717;BME280;4395;48.554;8.820;2023-03-03T03:25:39;95990.84;;;0.75;100.00
8717;BME280;4395;48.554;8.820;2023-03-03T03:27:53;95761.75;;;-0.61;100.00
8717;BME280;4395;48.554;8.820;2023-03-03T03:29:55;95982.34;;;0.79;100.00
8717;BME280;4395;48.554;8.820;2023-03-03T03:31:59;95988.88;;;0.83;100.00
8717;BME280;4395;48.554;8.820;2023-03-03T03:34:03;95982.84;;;0.89;100.00
8717;BME280;4395;48.554;8.820;2023-03-03T03:36:08;95965.06;;;0.83;100.00
8717;BME280;4395;48.554;8.820;2023-03-03T03:38:11;95994.75;;;1.00;100.00
8717;BME280;4395;48.554;8.820;2023-03-03T03:40:15;95958.78;;;0.84;100.00
8717;BME280;4395;48.554;8.820;2023-03-03T03:42:18;95987.88;;;1.06;100.00
8717;BME280;4395;48.554;8.820;2023-03-03T03:44:21;95967.00;;;0.96;100.00
8717;BME280;4395;48.554;8.820;2023-03-03T03:46:26;95995.28;;;1.17;100.00
8717;BME280;4395;48.554;8.820;2023-03-03T03:48:29;95994.72;;;1.21;100.00
8717;BME280;4395;48.554;8.820;2023-03-03T03:50:34;95997.59;;;1.26;100.00
8717;BME280;4395;48.554;8.820;2023-03-03T03:52:37;95996.78;;;1.26;100.00
8717;BME280;4395;48.554;8.820;2023-03-03T03:54:40;95961.88;;;1.16;100.00
8717;BME280;4395;48.554;8.820;2023-03-03T03:56:43;95982.78;;;1.32;100.00
8717;BME280;4395;48.554;8.820;2023-03-03T03:58:46;95993.81;;;1.36;100.00
8717;BME280;4395;48.554;8.820;2023-03-03T04:00:49;95990.97;;;1.37;100.00
8717;BME280;4395;48.554;8.820;2023-03-03T04:02:52;95984.84;;;1.37;100.00
8717;BME280;4395;48.554;8.820;2023-03-03T04:04:56;95993.47;;;1.45;100.00
8717;BME280;4395;48.554;8.820;2023-03-03T04:07:00;96002.84;;;1.48;100.00
8717;BME280;4395;48.554;8.820;2023-03-03T04:09:03;95998.41;;;1.55;100.00
8717;BME280;4395;48.554;8.820;2023-03-03T04:11:07;95993.56;;;1.58;100.00
8717;BME280;4395;48.554;8.820;2023-03-03T04:13:10;95987.00;;;1.54;100.00
8717;BME280;4395;48.554;8.820;2023-03-03T04:15:14;95992.44;;;1.46;100.00
8717;BME280;4395;48.554;8.820;2023-03-03T04:17:17;95996.69;;;1.41;100.00
8717;BME280;4395;48.554;8.820;2023-03-03T04:19:20;96014.22;;;1.42;100.00
8717;BME280;4395;48.554;8.820;2023-03-03T04:21:24;95993.22;;;1.40;100.00
8717;BME280;4395;48.554;8.820;2023-03-03T04:23:32;95989.50;;;1.35;100.00
8717;BME280;4395;48.554;8.820;2023-03-03T04:25:36;95981.41;;;1.15;100.00
8717;BME280;4395;48.554;8.820;2023-03-03T04:27:46;95994.59;;;1.08;100.00
8717;BME280;4395;48.554;8.820;2023-03-03T04:29:51;95928.81;;;0.56;100.00
8717;BME280;4395;48.554;8.820;2023-03-03T04:31:54;95902.34;;;0.56;100.00
8717;BME280;4395;48.554;8.820;2023-03-03T04:33:57;95982.59;;;1.34;100.00
8717;BME280;4395;48.554;8.820;2023-03-03T04:36:00;95985.38;;;1.53;100.00
8717;BME280;4395;48.554;8.820;2023-03-03T04:38:03;95993.41;;;1.67;100.00
8717;BME280;4395;48.554;8.820;2023-03-03T04:40:10;95955.38;;;1.46;100.00
8717;BME280;4395;48.554;8.820;2023-03-03T04:42:15;95994.91;;;1.82;100.00
8717;BME280;4395;48.554;8.820;2023-03-03T04:44:18;95947.91;;;1.56;100.00
8717;BME280;4395;48.554;8.820;2023-03-03T04:46:22;95959.34;;;1.64;100.00
8717;BME280;4395;48.554;8.820;2023-03-03T04:48:26;95992.56;;;2.01;100.00
8717;BME280;4395;48.554;8.820;2023-03-03T04:50:29;95996.25;;;2.06;100.00
8717;BME280;4395;48.554;8.820;2023-03-03T04:52:32;95998.31;;;2.11;100.00
8717;BME280;4395;48.554;8.820;2023-03-03T04:54:35;95989.97;;;2.14;100.00
8717;BME280;4395;48.554;8.820;2023-03-03T04:56:39;96002.41;;;2.13;100.00
8717;BME280;4395;48.554;8.820;2023-03-03T04:58:42;96007.13;;;2.18;100.00
8717;BME280;4395;48.554;8.820;2023-03-03T05:00:45;96000.75;;;2.06;100.00
8717;BME280;4395;48.554;8.820;2023-03-03T05:02:49;95978.22;;;1.88;100.00
8717;BME280;4395;48.554;8.820;2023-03-03T05:04:53;95997.94;;;2.14;100.00
8717;BME280;4395;48.554;8.820;2023-03-03T05:06:56;96002.41;;;2.13;100.00
8717;BME280;4395;48.554;8.820;2023-03-03T05:08:59;96003.56;;;1.98;100.00
8717;BME280;4395;48.554;8.820;2023-03-03T05:11:03;96015.59;;;2.00;100.00
8717;BME280;4395;48.554;8.820;2023-03-03T05:13:07;96005.22;;;2.05;100.00
8717;BME280;4395;48.554;8.820;2023-03-03T05:15:10;96013.03;;;2.13;100.00
8717;BME280;4395;48.554;8.820;2023-03-03T05:17:13;96010.59;;;2.18;100.00
8717;BME280;4395;48.554;8.820;2023-03-03T05:19:16;96011.38;;;2.12;100.00
8717;BME280;4395;48.554;8.820;2023-03-03T05:21:19;96022.63;;;1.80;100.00
8717;BME280;4395;48.554;8.820;2023-03-03T05:23:22;96014.66;;;1.45;100.00
8717;BME280;4395;48.554;8.820;2023-03-03T05:25:24;96024.22;;;1.74;100.00
8717;BME280;4395;48.554;8.820;2023-03-03T05:27:27;95948.44;;;1.45;100.00
8717;BME280;4395;48.554;8.820;2023-03-03T05:29:31;95993.31;;;1.88;100.00
8717;BME280;4395;48.554;8.820;2023-03-03T05:31:34;95943.38;;;1.50;100.00
8717;BME280;4395;48.554;8.820;2023-03-03T05:33:37;96017.03;;;2.03;100.00
8717;BME280;4395;48.554;8.820;2023-03-03T05:35:40;96022.78;;;2.06;100.00
8717;BME280;4395;48.554;8.820;2023-03-03T05:37:43;96027.91;;;2.14;100.00
8717;BME280;4395;48.554;8.820;2023-03-03T05:39:48;96032.53;;;1.99;100.00
8717;BME280;4395;48.554;8.820;2023-03-03T05:41:51;96029.22;;;1.90;100.00
8717;BME280;4395;48.554;8.820;2023-03-03T05:43:53;96034.09;;;1.87;100.00
8717;BME280;4395;48.554;8.820;2023-03-03T05:45:57;96029.06;;;1.99;100.00
8717;BME280;4395;48.554;8.820;2023-03-03T05:48:01;95929.28;;;1.43;100.00
8717;BME280;4395;48.554;8.820;2023-03-03T05:50:05;96029.31;;;2.10;100.00
8717;BME280;4395;48.554;8.820;2023-03-03T05:52:08;96037.50;;;2.15;100.00
8717;BME280;4395;48.554;8.820;2023-03-03T05:54:11;96041.59;;;2.18;100.00
8717;BME280;4395;48.554;8.820;2023-03-03T05:56:14;96039.16;;;2.16;100.00
8717;BME280;4395;48.554;8.820;2023-03-03T05:58:16;96032.63;;;2.19;100.00
8717;BME280;4395;48.554;8.820;2023-03-03T06:00:20;96041.78;;;2.16;100.00
8717;BME280;4395;48.554;8.820;2023-03-03T06:02:24;96051.94;;;2.06;100.00
8717;BME280;4395;48.554;8.820;2023-03-03T06:04:27;96051.34;;;2.11;100.00
8717;BME280;4395;48.554;8.820;2023-03-03T06:06:30;96050.38;;;2.18;100.00
8717;BME280;4395;48.554;8.820;2023-03-03T06:08:33;96053.06;;;2.25;100.00
8717;BME280;4395;48.554;8.820;2023-03-03T06:10:35;96058.25;;;2.05;100.00
8717;BME280;4395;48.554;8.820;2023-03-03T06:12:40;96052.72;;;2.00;100.00
8717;BME280;4395;48.554;8.820;2023-03-03T06:14:43;96052.56;;;2.08;100.00
8717;BME280;4395;48.554;8.820;2023-03-03T06:16:46;96056.56;;;1.98;100.00
8717;BME280;4395;48.554;8.820;2023-03-03T06:18:50;96058.56;;;1.89;100.00
8717;BME280;4395;48.554;8.820;2023-03-03T06:20:53;96055.09;;;1.60;100.00
8717;BME280;4395;48.554;8.820;2023-03-03T06:22:56;96050.09;;;1.72;100.00
8717;BME280;4395;48.554;8.820;2023-03-03T06:24:59;96058.59;;;1.96;100.00
8717;BME280;4395;48.554;8.820;2023-03-03T06:27:02;96066.22;;;2.05;100.00
8717;BME280;4395;48.554;8.820;2023-03-03T06:29:05;96054.19;;;2.09;100.00
8717;BME280;4395;48.554;8.820;2023-03-03T06:31:08;96059.16;;;2.19;100.00
8717;BME280;4395;48.554;8.820;2023-03-03T06:33:11;96067.56;;;2.29;100.00
8717;BME280;4395;48.554;8.820;2023-03-03T06:35:15;96072.69;;;2.37;100.00
8717;BME280;4395;48.554;8.820;2023-03-03T06:37:18;96062.28;;;2.36;100.00
8717;BME280;4395;48.554;8.820;2023-03-03T06:39:21;96060.63;;;2.28;100.00
8717;BME280;4395;48.554;8.820;2023-03-03T06:41:24;96076.19;;;2.44;100.00
8717;BME280;4395;48.554;8.820;2023-03-03T06:43:27;96072.97;;;2.49;100.00
8717;BME280;4395;48.554;8.820;2023-03-03T06:45:30;96077.25;;;2.50;100.00
8717;BME280;4395;48.554;8.820;2023-03-03T06:47:32;96083.34;;;1.75;100.00
8717;BME280;4395;48.554;8.820;2023-03-03T06:49:35;96091.53;;;1.80;100.00
8717;BME280;4395;48.554;8.820;2023-03-03T06:51:40;96088.38;;;1.98;100.00
8717;BME280;4395;48.554;8.820;2023-03-03T06:53:44;96088.00;;;1.45;100.00
8717;BME280;4395;48.554;8.820;2023-03-03T06:55:47;95968.09;;;0.80;100.00
8717;BME280;4395;48.554;8.820;2023-03-03T06:57:49;96102.84;;;1.67;100.00
8717;BME280;4395;48.554;8.820;2023-03-03T06:59:54;96093.59;;;1.84;100.00
8717;BME280;4395;48.554;8.820;2023-03-03T07:01:58;96104.16;;;2.06;100.00
8717;BME280;4395;48.554;8.820;2023-03-03T07:04:09;96107.00;;;2.04;100.00
8717;BME280;4395;48.554;8.820;2023-03-03T07:06:19;96100.78;;;2.25;100.00
8717;BME280;4395;48.554;8.820;2023-03-03T07:08:29;96106.06;;;2.18;100.00
8717;BME280;4395;48.554;8.820;2023-03-03T07:10:33;96102.38;;;2.19;100.00
8717;BME280;4395;48.554;8.820;2023-03-03T07:12:35;96111.84;;;1.73;100.00
8717;BME280;4395;48.554;8.820;2023-03-03T07:14:41;96112.63;;;1.94;100.00
8717;BME280;4395;48.554;8.820;2023-03-03T07:16:44;96121.56;;;2.21;100.00
8717;BME280;4395;48.554;8.820;2023-03-03T07:18:49;96114.56;;;2.42;100.00
8717;BME280;4395;48.554;8.820;2023-03-03T07:20:52;96117.28;;;2.55;100.00
8717;BME280;4395;48.554;8.820;2023-03-03T07:22:56;96107.53;;;2.62;100.00
8717;BME280;4395;48.554;8.820;2023-03-03T07:25:00;96125.63;;;2.52;100.00
8717;BME280;4395;48.554;8.820;2023-03-03T07:27:11;96129.00;;;2.33;100.00
8717;BME280;4395;48.554;8.820;2023-03-03T07:29:21;96117.84;;;2.09;100.00
8717;BME280;4395;48.554;8.820;2023-03-03T07:31:32;96120.53;;;2.16;100.00
8717;BME280;4395;48.554;8.820;2023-03-03T07:33:41;96129.13;;;1.90;100.00
8717;BME280;4395;48.554;8.820;2023-03-03T07:35:45;96133.81;;;2.22;100.00
8717;BME280;4395;48.554;8.820;2023-03-03T07:37:48;96133.19;;;2.55;100.00
8717;BME280;4395;48.554;8.820;2023-03-03T07:39:51;96130.88;;;2.80;100.00
8717;BME280;4395;48.554;8.820;2023-03-03T07:42:01;96130.34;;;2.98;100.00
8717;BME280;4395;48.554;8.820;2023-03-03T07:44:14;96040.91;;;2.44;100.00
8717;BME280;4395;48.554;8.820;2023-03-03T07:46:26;96128.94;;;3.08;100.00
8717;BME280;4395;48.554;8.820;2023-03-03T07:48:34;96138.56;;;3.16;100.00
8717;BME280;4395;48.554;8.820;2023-03-03T07:50:38;96140.03;;;3.25;100.00
8717;BME280;4395;48.554;8.820;2023-03-03T07:52:44;96135.75;;;3.31;100.00
8717;BME280;4395;48.554;8.820;2023-03-03T07:55:00;96033.28;;;2.75;100.00
8717;BME280;4395;48.554;8.820;2023-03-03T07:57:14;96134.34;;;3.41;100.00
8717;BME280;4395;48.554;8.820;2023-03-03T07:59:22;96149.66;;;3.39;100.00
8717;BME280;4395;48.554;8.820;2023-03-03T08:01:40;96144.91;;;3.15;100.00
8717;BME280;4395;48.554;8.820;2023-03-03T08:03:43;96144.47;;;3.05;100.00
8717;BME280;4395;48.554;8.820;2023-03-03T08:05:48;96144.75;;;2.75;100.00
8717;BME280;4395;48.554;8.820;2023-03-03T08:07:51;96141.56;;;2.93;100.00
8717;BME280;4395;48.554;8.820;2023-03-03T08:09:57;96067.78;;;2.75;100.00
8717;BME280;4395;48.554;8.820;2023-03-03T08:12:19;96087.94;;;3.31;100.00
8717;BME280;4395;48.554;8.820;2023-03-03T08:14:27;96043.16;;;3.14;100.00
8717;BME280;4395;48.554;8.820;2023-03-03T08:16:36;96138.03;;;3.67;100.00
8717;BME280;4395;48.554;8.820;2023-03-03T08:18:42;96135.59;;;3.72;100.00
8717;BME280;4395;48.554;8.820;2023-03-03T08:20:48;96106.56;;;3.64;100.00
8717;BME280;4395;48.554;8.820;2023-03-03T08:22:51;96135.19;;;4.08;100.00
8717;BME280;4395;48.554;8.820;2023-03-03T08:24:54;96111.06;;;3.96;100.00
8717;BME280;4395;48.554;8.820;2023-03-03T08:26:57;96053.41;;;3.70;100.00
8717;BME280;4395;48.554;8.820;2023-03-03T08:29:01;96142.13;;;4.29;100.00
8717;BME280;4395;48.554;8.820;2023-03-03T08:31:04;96146.81;;;4.40;100.00
8717;BME280;4395;48.554;8.820;2023-03-03T08:33:22;96149.88;;;4.43;100.00
8717;BME280;4395;48.554;8.820;2023-03-03T08:35:25;96143.09;;;4.54;100.00
8717;BME280;4395;48.554;8.820;2023-03-03T08:37:28;96148.00;;;4.57;100.00
8717;BME280;4395;48.554;8.820;2023-03-03T08:39:31;96157.69;;;4.25;100.00
8717;BME280;4395;48.554;8.820;2023-03-03T08:41:34;96149.28;;;4.22;100.00
8717;BME280;4395;48.554;8.820;2023-03-03T08:43:37;96144.19;;;4.13;100.00
8717;BME280;4395;48.554;8.820;2023-03-03T08:45:41;96147.84;;;4.26;100.00
8717;BME280;4395;48.554;8.820;2023-03-03T08:47:44;96154.16;;;4.44;100.00
8717;BME280;4395;48.554;8.820;2023-03-03T08:49:47;96153.34;;;4.50;100.00
8717;BME280;4395;48.554;8.820;2023-03-03T08:51:50;96139.56;;;4.67;100.00
8717;BME280;4395;48.554;8.820;2023-03-03T08:53:53;96143.19;;;4.85;100.00
8717;BME280;4395;48.554;8.820;2023-03-03T08:55:55;96146.75;;;4.66;100.00
8717;BME280;4395;48.554;8.820;2023-03-03T08:57:58;96148.75;;;4.77;100.00
8717;BME280;4395;48.554;8.820;2023-03-03T09:00:01;96147.47;;;4.93;100.00
8717;BME280;4395;48.554;8.820;2023-03-03T09:02:06;96147.25;;;4.95;100.00
8717;BME280;4395;48.554;8.820;2023-03-03T09:04:09;96151.41;;;4.84;100.00
8717;BME280;4395;48.554;8.820;2023-03-03T09:06:12;96152.66;;;4.75;100.00
8717;BME280;4395;48.554;8.820;2023-03-03T09:08:15;96145.69;;;4.80;100.00
8717;BME280;4395;48.554;8.820;2023-03-03T09:10:20;96155.44;;;5.00;100.00
8717;BME280;4395;48.554;8.820;2023-03-03T09:12:30;96149.00;;;5.27;100.00
8717;BME280;4395;48.554;8.820;2023-03-03T09:14:34;96112.72;;;5.20;100.00
8717;BME280;4395;48.554;8.820;2023-03-03T09:16:38;96146.03;;;5.42;100.00
8717;BME280;4395;48.554;8.820;2023-03-03T09:18:43;96150.97;;;5.38;100.00
8717;BME280;4395;48.554;8.820;2023-03-03T09:20:46;96129.31;;;5.60;100.00
8717;BME280;4395;48.554;8.820;2023-03-03T09:22:49;96068.00;;;5.28;100.00
8717;BME280;4395;48.554;8.820;2023-03-03T09:24:54;96152.97;;;6.12;100.00
8717;BME280;4395;48.554;8.820;2023-03-03T09:26:58;96154.69;;;6.25;100.00
8717;BME280;4395;48.554;8.820;2023-03-03T09:29:18;96049.22;;;5.73;99.25
8717;BME280;4395;48.554;8.820;2023-03-03T09:31:30;96151.28;;;6.61;98.92
8717;BME280;4395;48.554;8.820;2023-03-03T09:33:40;96126.19;;;6.44;96.91
8717;BME280;4395;48.554;8.820;2023-03-03T09:35:45;96162.13;;;6.85;95.75
8717;BME280;4395;48.554;8.820;2023-03-03T09:37:50;96146.38;;;6.76;94.71
8717;BME280;4395;48.554;8.820;2023-03-03T09:39:54;96127.72;;;5.52;100.00
8717;BME280;4395;48.554;8.820;2023-03-03T09:42:31;96154.47;;;6.02;100.00
8717;BME280;4395;48.554;8.820;2023-03-03T09:45:03;96177.56;;;5.83;100.00
8717;BME280;4395;48.554;8.820;2023-03-03T09:47:23;96163.25;;;6.34;97.78
8717;BME280;4395;48.554;8.820;2023-03-03T09:49:35;96158.63;;;5.98;98.91
8717;BME280;4395;48.554;8.820;2023-03-03T09:54:21;96164.31;;;6.51;97.23
8717;BME280;4395;48.554;8.820;2023-03-03T09:56:32;96169.75;;;6.99;93.27
8717;BME280;4395;48.554;8.820;2023-03-03T09:58:45;96164.31;;;7.24;91.85
8717;BME280;4395;48.554;8.820;2023-03-03T10:01:00;96149.63;;;7.15;90.33
8717;BME280;4395;48.554;8.820;2023-03-03T10:03:35;96160.94;;;6.99;90.76
8717;BME280;4395;48.554;8.820;2023-03-03T10:05:46;96169.66;;;7.24;91.05
8717;BME280;4395;48.554;8.820;2023-03-03T10:08:02;96166.56;;;7.57;88.21
8717;BME280;4395;48.554;8.820;2023-03-03T10:10:18;96178.34;;;7.68;86.87
8717;BME280;4395;48.554;8.820;2023-03-03T10:12:27;96174.38;;;7.89;86.50
8717;BME280;4395;48.554;8.820;2023-03-03T10:14:55;96179.41;;;7.97;84.92
8717;BME280;4395;48.554;8.820;2023-03-03T10:17:21;96170.94;;;8.12;82.50
8717;BME280;4395;48.554;8.820;2023-03-03T10:19:35;96174.38;;;7.59;81.29
8717;BME280;4395;48.554;8.820;2023-03-03T10:21:43;96173.34;;;7.90;79.71
8717;BME280;4395;48.554;8.820;2023-03-03T10:24:03;96165.78;;;7.38;82.29
8717;BME280;4395;48.554;8.820;2023-03-03T10:26:16;96178.47;;;7.73;82.26
8717;BME280;4395;48.554;8.820;2023-03-03T10:28:53;96178.00;;;7.94;80.66
8717;BME280;4395;48.554;8.820;2023-03-03T10:31:06;96171.34;;;7.85;79.26
8717;BME280;4395;48.554;8.820;2023-03-03T10:33:22;96175.22;;;7.71;79.77
8717;BME280;4395;48.554;8.820;2023-03-03T10:35:47;96178.94;;;7.70;82.21
8717;BME280;4395;48.554;8.820;2023-03-03T10:38:28;96181.16;;;7.43;83.22
8717;BME280;4395;48.554;8.820;2023-03-03T10:40:39;96187.47;;;8.09;80.21
8717;BME280;4395;48.554;8.820;2023-03-03T10:45:44;96184.56;;;8.22;79.17
8717;BME280;4395;48.554;8.820;2023-03-03T10:48:07;96183.22;;;8.43;79.60
8717;BME280;4395;48.554;8.820;2023-03-03T10:50:18;96184.28;;;8.65;77.21
8717;BME280;4395;48.554;8.820;2023-03-03T10:52:31;96180.91;;;8.69;75.94
8717;BME280;4395;48.554;8.820;2023-03-03T10:54:50;96189.06;;;7.98;77.51
8717;BME280;4395;48.554;8.820;2023-03-03T10:57:02;96135.88;;;7.90;78.57
8717;BME280;4395;48.554;8.820;2023-03-03T10:59:19;96188.50;;;8.07;76.76
8717;BME280;4395;48.554;8.820;2023-03-03T11:01:36;96193.28;;;8.05;75.95
8717;BME280;4395;48.554;8.820;2023-03-03T11:06:17;96192.78;;;8.85;70.77
8717;BME280;4395;48.554;8.820;2023-03-03T11:08:27;96167.63;;;8.51;68.75
8717;BME280;4395;48.554;8.820;2023-03-03T11:10:47;96134.63;;;8.16;70.14
8717;BME280;4395;48.554;8.820;2023-03-03T11:13:00;96145.66;;;7.66;72.86
8717;BME280;4395;48.554;8.820;2023-03-03T11:15:21;96107.84;;;7.92;72.80
8717;BME280;4395;48.554;8.820;2023-03-03T11:17:34;96148.53;;;8.71;69.92
8717;BME280;4395;48.554;8.820;2023-03-03T11:19:51;96174.69;;;9.04;67.39
8717;BME280;4395;48.554;8.820;2023-03-03T11:22:01;96181.34;;;9.13;68.09
8717;BME280;4395;48.554;8.820;2023-03-03T11:24:23;96053.63;;;8.44;67.40
8717;BME280;4395;48.554;8.820;2023-03-03T11:26:41;96163.97;;;9.04;68.61
8717;BME280;4395;48.554;8.820;2023-03-03T11:29:07;96171.47;;;8.90;67.59
8717;BME280;4395;48.554;8.820;2023-03-03T11:31:16;96173.69;;;8.70;69.39
8717;BME280;4395;48.554;8.820;2023-03-03T11:33:29;96156.72;;;9.16;68.05
8717;BME280;4395;48.554;8.820;2023-03-03T11:35:42;96153.75;;;8.78;68.43
8717;BME280;4395;48.554;8.820;2023-03-03T11:37:54;96153.25;;;9.04;67.86
8717;BME280;4395;48.554;8.820;2023-03-03T11:40:03;96154.97;;;9.79;66.26